PROFILE

 METAR AND TAF INFORMATION
ADDS - METARS form results

(0526 UTC 21 July 2018)

 
GOBD 210500Z 31005KT 8000 NSC 25/22 Q1012 NOSIG
GOBD 210430Z 29006KT 8000 NSC 25/22 Q1012 NOSIG

 AIRPORT MAP

 RUNWAY INFORMATION

 AIRPORT FREQUENCIES

 AIRPORT NEAR NAVIGATION AIDS